Time;durP1;ratioP1;P1;durP2;ratioP2;P2;SDS_P1;SDS_P2;PMS_P1;PMS_P2;Temp;Humidity;BMP_temperature;BMP_pressure;BME280_temperature;BME280_humidity;BME280_pressure;Samples;Min_cycle;Max_cycle;Signal;HPM_P1;HPM_P2
2022/04/17 00:02:01;;;;;;;2.40;2.20;;;7.60;99.90;;;;;;5024677;28;20049;-75
2022/04/17 00:04:27;;;;;;;1.85;1.75;;;7.50;99.90;;;;;;5019327;28;20125;-89
2022/04/17 00:06:53;;;;;;;6.53;3.55;;;7.50;99.90;;;;;;5005413;28;20057;-90
2022/04/17 00:09:19;;;;;;;2.20;2.03;;;7.50;99.90;;;;;;5004553;28;20034;-89
2022/04/17 00:11:45;;;;;;;3.60;3.03;;;7.50;99.90;;;;;;5005175;28;20752;-90
2022/04/17 00:14:11;;;;;;;3.92;2.72;;;7.40;99.90;;;;;;5004904;28;20049;-90
2022/04/17 00:16:37;;;;;;;5.13;2.03;;;7.40;99.90;;;;;;5006971;28;20038;-89
2022/04/17 00:19:03;;;;;;;2.60;2.40;;;7.40;99.90;;;;;;5005952;28;20049;-90
2022/04/17 00:21:28;;;;;;;2.25;2.03;;;7.40;99.90;;;;;;5024616;28;20052;-89
2022/04/17 00:23:54;;;;;;;2.80;2.60;;;7.40;99.90;;;;;;5024679;28;20045;-89
2022/04/17 00:26:19;;;;;;;1.55;1.45;;;7.40;99.90;;;;;;5024379;28;20480;-89
2022/04/17 00:28:45;;;;;;;3.03;2.83;;;7.40;99.90;;;;;;5005542;28;20045;-89
2022/04/17 00:31:11;;;;;;;2.10;2.00;;;7.30;99.90;;;;;;5018197;28;20610;-89
2022/04/17 00:33:36;;;;;;;2.58;1.88;;;7.30;99.90;;;;;;5023580;28;20388;-89
2022/04/17 00:36:02;;;;;;;3.17;2.58;;;7.30;99.90;;;;;;5006569;28;20045;-89
2022/04/17 00:38:28;;;;;;;4.00;2.60;;;7.30;99.90;;;;;;5024711;28;20064;-89
2022/04/17 00:40:54;;;;;;;2.75;2.20;;;7.20;99.90;;;;;;5024388;28;20041;-89
2022/04/17 00:43:25;;;;;;;5.05;2.17;;;7.20;99.90;;;;;;5024280;28;20046;-88
2022/04/17 00:45:51;;;;;;;7.53;4.28;;;7.20;99.90;;;;;;5015529;28;20412;-90
2022/04/17 00:48:17;;;;;;;4.03;2.97;;;7.10;99.90;;;;;;5021949;28;20042;-89
2022/04/17 00:50:44;;;;;;;5.88;2.70;;;7.10;99.90;;;;;;5023943;28;20550;-89
2022/04/17 00:53:09;;;;;;;3.22;2.10;;;7.10;99.90;;;;;;5023587;28;20038;-89
2022/04/17 00:55:36;;;;;;;2.67;2.47;;;7.10;99.90;;;;;;5022811;28;20174;-90
2022/04/17 00:58:02;;;;;;;2.58;2.38;;;7.10;99.90;;;;;;5024098;28;20091;-89
2022/04/17 01:00:27;;;;;;;2.33;1.77;;;7.10;99.90;;;;;;5023810;28;20041;-89
2022/04/17 01:02:53;;;;;;;2.45;2.15;;;7.00;99.90;;;;;;5023102;28;20459;-89
2022/04/17 01:05:19;;;;;;;4.72;2.45;;;7.00;99.90;;;;;;5034488;28;20065;-89
2022/04/17 01:07:46;;;;;;;3.75;2.38;;;7.00;99.90;;;;;;5043355;28;20773;-89
2022/04/17 01:10:12;;;;;;;2.97;1.35;;;7.00;99.90;;;;;;5043354;28;20045;-90
2022/04/17 01:12:37;;;;;;;2.55;1.88;;;7.00;99.90;;;;;;5026044;28;20416;-89
2022/04/17 01:15:04;;;;;;;3.78;2.13;;;6.90;99.90;;;;;;5043470;28;20049;-90
2022/04/17 01:17:29;;;;;;;1.73;1.55;;;6.90;99.90;;;;;;5030578;28;20049;-90
2022/04/17 01:19:55;;;;;;;1.83;1.70;;;6.90;99.90;;;;;;5037937;28;20484;-90
2022/04/17 01:22:20;;;;;;;5.22;2.40;;;6.90;99.90;;;;;;5005609;28;20423;-89
2022/04/17 01:27:31;;;;;;;3.47;3.17;;;6.80;99.90;;;;;;5017965;28;20115;-89
2022/04/17 01:29:56;;;;;;;2.25;2.05;;;6.80;99.90;;;;;;5039397;28;20037;-89
2022/04/17 01:32:22;;;;;;;2.13;1.88;;;6.80;99.90;;;;;;5038435;28;20064;-89
2022/04/17 01:34:48;;;;;;;3.17;2.88;;;6.80;99.90;;;;;;5022561;28;20049;-89
2022/04/17 01:37:14;;;;;;;3.47;3.08;;;6.80;99.90;;;;;;5022922;28;20041;-89
2022/04/17 01:39:40;;;;;;;2.55;2.28;;;6.80;99.90;;;;;;5023319;28;20041;-89
2022/04/17 01:42:06;;;;;;;3.67;2.50;;;6.80;99.90;;;;;;5023088;28;20056;-90
2022/04/17 01:44:31;;;;;;;4.93;2.47;;;6.70;99.90;;;;;;5038429;28;20069;-88
2022/04/17 01:46:58;;;;;;;2.67;2.47;;;6.80;99.90;;;;;;5024065;28;20693;-89
2022/04/17 01:49:23;;;;;;;2.28;1.92;;;6.70;99.90;;;;;;5022308;28;20112;-89
2022/04/17 01:51:51;;;;;;;4.55;3.42;;;6.70;99.90;;;;;;5022719;28;20618;-89
2022/04/17 01:54:18;;;;;;;2.58;2.38;;;6.70;99.90;;;;;;5023546;28;20045;-89
2022/04/17 01:56:47;;;;;;;1.48;1.38;;;6.70;99.90;;;;;;5023027;28;20049;-88
2022/04/17 01:59:13;;;;;;;2.70;2.50;;;6.70;99.90;;;;;;5022123;28;20041;-88
2022/04/17 02:01:39;;;;;;;3.25;2.28;;;6.70;99.90;;;;;;5023389;28;20140;-89
2022/04/17 02:04:07;;;;;;;5.30;2.38;;;6.60;99.90;;;;;;5022016;28;20067;-89
2022/04/17 02:06:33;;;;;;;2.88;2.67;;;6.60;99.90;;;;;;5022178;28;20081;-89
2022/04/17 02:08:59;;;;;;;5.55;2.95;;;6.60;99.90;;;;;;5022838;28;20500;-89
2022/04/17 02:11:26;;;;;;;10.63;2.92;;;6.60;99.90;;;;;;5036608;28;20056;-89
2022/04/17 02:13:52;;;;;;;2.25;2.10;;;6.50;99.90;;;;;;5042370;28;20045;-89
2022/04/17 02:16:18;;;;;;;4.70;1.95;;;6.50;99.90;;;;;;5041824;28;20044;-89
2022/04/17 02:18:45;;;;;;;3.15;2.85;;;6.50;99.90;;;;;;5041527;28;20045;-89
2022/04/17 02:21:13;;;;;;;2.88;2.67;;;6.50;99.90;;;;;;5024095;28;20055;-89
2022/04/17 02:23:42;;;;;;;3.08;2.67;;;6.40;99.90;;;;;;5041527;28;20033;-89
2022/04/17 02:26:09;;;;;;;2.95;2.75;;;6.40;99.90;;;;;;5041753;28;20068;-88
2022/04/17 02:28:40;;;;;;;3.28;2.88;;;6.40;99.90;;;;;;5041912;28;20041;-89
2022/04/17 02:31:06;;;;;;;3.80;2.58;;;6.40;99.90;;;;;;5057331;28;20053;-89
2022/04/17 02:33:32;;;;;;;4.35;3.72;;;6.40;99.90;;;;;;5041252;28;20049;-89
2022/04/17 02:35:58;;;;;;;3.20;2.60;;;6.40;99.90;;;;;;5042393;28;20472;-89
2022/04/17 02:38:24;;;;;;;3.03;2.72;;;6.40;99.90;;;;;;5041693;28;20695;-89
2022/04/17 02:40:50;;;;;;;3.05;1.98;;;6.30;99.90;;;;;;5031980;28;20041;-89
2022/04/17 02:43:16;;;;;;;2.65;2.45;;;6.30;99.90;;;;;;5021355;28;20532;-88
2022/04/17 02:45:42;;;;;;;2.72;2.53;;;6.30;99.90;;;;;;5021616;28;20052;-89
2022/04/17 02:48:07;;;;;;;2.83;2.03;;;6.30;99.90;;;;;;5021110;28;20083;-88
2022/04/17 02:50:33;;;;;;;5.63;2.55;;;6.30;99.90;;;;;;5021743;28;20129;-89
2022/04/17 02:52:59;;;;;;;3.42;2.67;;;6.20;99.90;;;;;;5022278;28;20343;-89
2022/04/17 02:55:24;;;;;;;4.45;3.47;;;6.30;99.90;;;;;;5021577;28;20041;-88
2022/04/17 02:57:50;;;;;;;2.47;2.28;;;6.30;99.90;;;;;;5021691;28;20500;-89
2022/04/17 03:00:17;;;;;;;3.13;2.85;;;6.20;99.90;;;;;;5021436;28;21027;-89
2022/04/17 03:05:36;;;;;;;1.80;1.70;;;6.20;99.90;;;;;;5028628;28;20127;-89
2022/04/17 03:08:08;;;;;;;3.67;2.75;;;6.20;99.90;;;;;;5021123;28;20400;-89
2022/04/17 03:10:38;;;;;;;2.45;2.13;;;6.10;99.90;;;;;;5021346;28;20045;-89
2022/04/17 03:13:04;;;;;;;5.22;2.47;;;6.10;99.90;;;;;;5021235;28;20569;-89
2022/04/17 03:15:31;;;;;;;14.45;3.45;;;6.10;99.90;;;;;;5022154;28;20045;-88
2022/04/17 03:17:57;;;;;;;3.15;2.92;;;6.10;99.90;;;;;;5003278;28;20539;-88
2022/04/17 03:20:22;;;;;;;2.85;2.63;;;6.10;99.90;;;;;;5025902;28;20098;-88
2022/04/17 03:22:49;;;;;;;3.15;2.95;;;6.00;99.90;;;;;;5041609;28;20522;-88
2022/04/17 03:25:14;;;;;;;3.42;3.22;;;6.00;99.90;;;;;;5041136;28;20124;-88
2022/04/17 03:27:43;;;;;;;4.65;2.75;;;6.00;99.90;;;;;;5041294;28;20134;-88
2022/04/17 03:30:09;;;;;;;2.60;2.40;;;6.00;99.90;;;;;;5041536;28;20049;-88
2022/04/17 03:32:35;;;;;;;2.80;2.60;;;6.10;99.90;;;;;;5040202;28;20506;-88
2022/04/17 03:35:02;;;;;;;4.28;3.05;;;6.10;99.90;;;;;;5042271;28;20045;-80
2022/04/17 03:37:27;;;;;;;2.90;2.60;;;6.00;99.90;;;;;;5061519;28;20040;-88
2022/04/17 03:39:53;;;;;;;2.25;2.10;;;6.00;99.90;;;;;;5041292;28;20091;-88
2022/04/17 03:42:22;;;;;;;2.80;2.53;;;6.00;99.90;;;;;;5007264;28;20045;-88
2022/04/17 03:44:48;;;;;;;3.65;2.67;;;6.00;99.90;;;;;;5025564;28;20046;-88
2022/04/17 03:47:13;;;;;;;3.22;2.88;;;6.00;99.90;;;;;;5045026;28;20056;-88
2022/04/17 03:49:39;;;;;;;5.05;3.30;;;6.00;99.90;;;;;;5044168;28;20099;-88
2022/04/17 03:52:05;;;;;;;7.90;4.70;;;6.00;99.90;;;;;;5026055;28;20045;-88
2022/04/17 03:54:31;;;;;;;4.50;4.03;;;5.90;99.90;;;;;;5025043;28;20052;-89
2022/04/17 03:56:56;;;;;;;3.50;2.63;;;5.90;99.90;;;;;;5025605;28;20033;-88
2022/04/17 03:59:22;;;;;;;4.28;3.10;;;5.90;99.90;;;;;;5024666;28;20041;-88
2022/04/17 04:01:47;;;;;;;3.83;2.90;;;5.90;99.90;;;;;;5026417;28;20484;-88
2022/04/17 04:04:14;;;;;;;2.25;2.08;;;5.80;99.90;;;;;;5043524;28;20479;-89
2022/04/17 04:06:41;;;;;;;4.13;3.05;;;5.80;99.90;;;;;;5044593;28;20102;-88
2022/04/17 04:09:06;;;;;;;9.30;2.15;;;5.80;99.90;;;;;;5044415;28;20179;-88
2022/04/17 04:11:32;;;;;;;2.97;2.22;;;5.80;99.90;;;;;;5044770;28;20136;-88
2022/04/17 04:13:57;;;;;;;3.35;3.05;;;5.80;99.90;;;;;;5045086;28;20041;-88
2022/04/17 04:16:23;;;;;;;4.60;2.33;;;5.80;99.90;;;;;;5044245;28;20048;-88
2022/04/17 04:18:48;;;;;;;8.60;3.17;;;5.80;99.90;;;;;;5043522;28;20194;-88
2022/04/17 04:21:14;;;;;;;3.90;3.38;;;5.80;99.90;;;;;;5044016;28;20060;-88
2022/04/17 04:23:41;;;;;;;3.90;3.17;;;5.80;99.90;;;;;;5044748;28;20048;-88
2022/04/17 04:26:07;;;;;;;3.35;3.03;;;5.70;99.90;;;;;;5026124;28;20120;-88
2022/04/17 04:28:33;;;;;;;6.85;2.70;;;5.70;99.90;;;;;;5024218;28;20184;-88
2022/04/17 04:31:00;;;;;;;5.53;3.53;;;5.70;99.90;;;;;;5024907;28;20120;-88
2022/04/17 04:33:25;;;;;;;2.53;2.42;;;5.70;99.90;;;;;;5023363;28;20042;-88
2022/04/17 04:35:51;;;;;;;3.88;2.80;;;5.70;99.90;;;;;;5024425;28;20049;-88
2022/04/17 04:38:17;;;;;;;3.20;2.70;;;5.70;99.90;;;;;;5039311;28;20034;-89
2022/04/17 04:40:42;;;;;;;3.15;2.95;;;5.70;99.90;;;;;;5039268;28;20041;-88
2022/04/17 04:43:08;;;;;;;4.97;3.55;;;5.60;99.90;;;;;;5043627;28;20431;-89
2022/04/17 04:49:29;;;;;;;3.47;3.17;;;5.60;99.90;;;;;;5023135;28;20109;-87
2022/04/17 04:51:06;;;;;;;3.75;3.45;;;5.60;99.90;;;;;;5055792;28;20447;-88
2022/04/17 04:53:32;;;;;;;5.82;3.88;;;5.60;99.90;;;;;;5024213;28;20049;-88
2022/04/17 04:55:57;;;;;;;3.83;3.50;;;5.60;99.90;;;;;;5023742;28;20087;-88
2022/04/17 04:58:23;;;;;;;6.95;3.38;;;5.60;99.90;;;;;;5023225;28;20052;-87
2022/04/17 05:00:48;;;;;;;4.13;3.17;;;5.60;99.90;;;;;;5006195;28;20488;-87
2022/04/17 05:03:14;;;;;;;4.70;3.42;;;5.60;99.90;;;;;;5022913;28;20038;-86
2022/04/17 05:05:39;;;;;;;2.55;2.35;;;5.70;99.90;;;;;;5023866;28;20384;-87
2022/04/17 05:08:05;;;;;;;3.60;2.92;;;5.70;99.90;;;;;;5023588;28;20069;-85
2022/04/17 05:10:31;;;;;;;5.57;3.80;;;5.70;99.90;;;;;;5023597;28;20096;-86
2022/04/17 05:12:57;;;;;;;5.15;3.88;;;5.70;99.90;;;;;;5006222;28;20084;-86
2022/04/17 05:15:22;;;;;;;4.55;4.18;;;5.70;99.90;;;;;;5039028;28;20093;-86
2022/04/17 05:17:48;;;;;;;4.95;3.58;;;5.80;99.90;;;;;;5022659;28;20088;-86
2022/04/17 05:20:14;;;;;;;5.50;4.88;;;5.80;99.90;;;;;;5036626;28;20451;-86
2022/04/17 05:22:40;;;;;;;3.83;3.33;;;5.80;99.90;;;;;;5043497;28;20593;-86
2022/04/17 05:25:06;;;;;;;2.90;2.67;;;5.80;99.90;;;;;;5058505;28;20068;-86
2022/04/17 05:27:32;;;;;;;3.43;2.77;;;5.80;99.90;;;;;;5041763;28;20053;-85
2022/04/17 05:29:58;;;;;;;4.75;4.28;;;5.90;99.90;;;;;;5059216;28;20056;-85
2022/04/17 05:32:24;;;;;;;2.93;2.60;;;5.80;99.90;;;;;;5042093;28;20037;-86
2022/04/17 05:34:50;;;;;;;5.80;4.80;;;5.90;99.90;;;;;;5025879;28;20454;-82
2022/04/17 05:37:15;;;;;;;2.58;2.38;;;5.90;99.90;;;;;;5042761;28;20120;-80
2022/04/17 05:39:41;;;;;;;2.95;2.75;;;5.90;99.90;;;;;;5033456;28;20551;-82
2022/04/17 05:42:07;;;;;;;10.52;4.28;;;5.90;99.90;;;;;;5021891;28;20068;-83
2022/04/17 05:44:34;;;;;;;4.73;2.50;;;6.00;99.90;;;;;;5022484;28;20041;-83
2022/04/17 05:47:00;;;;;;;5.78;3.05;;;6.00;99.90;;;;;;5019859;28;20124;-82
2022/04/17 05:49:25;;;;;;;7.63;4.28;;;6.00;99.90;;;;;;5023545;28;20124;-83
2022/04/17 05:51:52;;;;;;;3.47;3.20;;;6.00;99.90;;;;;;5005568;28;20537;-83
2022/04/17 05:54:18;;;;;;;4.85;3.70;;;6.10;99.90;;;;;;5022634;28;20068;-82
2022/04/17 05:56:44;;;;;;;2.97;2.77;;;6.10;99.90;;;;;;5004858;28;20484;-85
2022/04/17 05:59:09;;;;;;;2.88;2.67;;;6.10;99.90;;;;;;5039859;28;20034;-83
2022/04/17 06:01:35;;;;;;;5.90;4.00;;;6.10;99.90;;;;;;5021989;28;20042;-84
2022/04/17 06:04:03;;;;;;;4.18;3.78;;;6.10;99.90;;;;;;5021550;28;20052;-81
2022/04/17 06:06:29;;;;;;;9.70;4.55;;;6.20;99.90;;;;;;5023015;28;20089;-83
2022/04/17 06:08:54;;;;;;;3.00;2.80;;;6.20;99.90;;;;;;5022848;28;20471;-84
2022/04/17 06:11:20;;;;;;;5.47;3.95;;;6.20;99.90;;;;;;5022416;28;20107;-83
2022/04/17 06:13:46;;;;;;;7.80;3.13;;;6.20;99.90;;;;;;5032931;28;20132;-83
2022/04/17 06:16:11;;;;;;;5.47;3.50;;;6.30;99.90;;;;;;5022231;28;20041;-83
2022/04/17 06:18:37;;;;;;;4.88;3.83;;;6.30;99.90;;;;;;5021847;28;20037;-84
2022/04/17 06:21:02;;;;;;;4.45;3.78;;;6.40;99.90;;;;;;5022457;28;20034;-82
2022/04/17 06:23:28;;;;;;;4.13;3.83;;;6.30;99.90;;;;;;5022747;28;20554;-83
2022/04/17 06:25:54;;;;;;;10.68;5.07;;;6.40;99.90;;;;;;5009160;28;20124;-84
2022/04/17 06:28:19;;;;;;;3.42;3.00;;;6.40;99.90;;;;;;5003001;28;20073;-81
2022/04/17 06:30:45;;;;;;;5.43;4.22;;;6.50;99.90;;;;;;4993955;28;20477;-82
2022/04/17 06:33:10;;;;;;;5.55;2.78;;;6.50;99.90;;;;;;4998473;28;20051;-83
2022/04/17 06:35:36;;;;;;;4.63;4.18;;;6.50;99.90;;;;;;5000324;28;20041;-84
2022/04/17 06:38:02;;;;;;;3.42;2.80;;;6.60;99.90;;;;;;5029083;28;20029;-82
2022/04/17 06:40:31;;;;;;;9.75;4.18;;;6.60;99.90;;;;;;5002687;28;20413;-82
2022/04/17 06:43:00;;;;;;;3.33;2.75;;;6.70;99.90;;;;;;5017713;28;20053;-82
2022/04/17 06:45:26;;;;;;;3.10;2.80;;;6.70;99.90;;;;;;5000964;28;20585;-84
2022/04/17 06:47:55;;;;;;;6.05;4.25;;;6.80;99.90;;;;;;5005417;28;20084;-88
2022/04/17 06:50:22;;;;;;;3.83;2.90;;;6.80;99.90;;;;;;5001876;28;20721;-84
2022/04/17 06:52:51;;;;;;;3.75;3.55;;;6.80;99.90;;;;;;5016730;28;20054;-82
2022/04/17 06:55:16;;;;;;;4.35;3.88;;;6.90;99.90;;;;;;5001534;28;20046;-83
2022/04/17 06:57:48;;;;;;;4.40;3.70;;;6.90;99.90;;;;;;5002133;28;20240;-84
2022/04/17 07:00:14;;;;;;;4.90;4.32;;;7.00;99.90;;;;;;5001948;28;20057;-89
2022/04/17 07:02:41;;;;;;;4.50;4.10;;;7.00;99.90;;;;;;5001204;28;20042;-87
2022/04/17 07:05:08;;;;;;;11.88;4.50;;;7.10;99.90;;;;;;5009534;28;20813;-84
2022/04/17 07:07:34;;;;;;;4.25;3.78;;;7.10;99.90;;;;;;5028708;28;20480;-84
2022/04/17 07:10:01;;;;;;;4.50;3.05;;;7.20;99.90;;;;;;5039148;28;20060;-83
2022/04/17 07:12:29;;;;;;;5.55;3.90;;;7.20;99.90;;;;;;5038972;28;20091;-83
2022/04/17 07:14:55;;;;;;;5.28;4.22;;;7.20;99.90;;;;;;5038255;28;20044;-83
2022/04/17 07:17:20;;;;;;;10.15;5.20;;;7.30;99.90;;;;;;5038746;28;20049;-84
2022/04/17 07:19:46;;;;;;;3.47;3.28;;;7.30;99.90;;;;;;5039873;28;20079;-84
2022/04/17 07:22:13;;;;;;;8.15;3.88;;;7.30;99.90;;;;;;5039775;28;20033;-83
2022/04/17 07:24:40;;;;;;;3.85;3.47;;;7.40;99.90;;;;;;5039826;28;20052;-83
2022/04/17 07:27:06;;;;;;;4.97;3.53;;;7.40;99.90;;;;;;5040076;28;20041;-83
2022/04/17 07:29:31;;;;;;;4.22;3.75;;;7.50;99.90;;;;;;5039789;28;20122;-84
2022/04/17 07:31:57;;;;;;;4.25;3.83;;;7.50;99.90;;;;;;5039270;28;20045;-83
2022/04/17 07:34:23;;;;;;;10.90;4.45;;;7.50;99.90;;;;;;5040115;28;20041;-83
2022/04/17 07:36:52;;;;;;;3.63;3.33;;;7.60;99.90;;;;;;5039558;28;20160;-83
2022/04/17 07:39:22;;;;;;;5.80;3.67;;;7.60;99.90;;;;;;5039623;28;20079;-83
2022/04/17 07:41:48;;;;;;;2.95;2.03;;;7.60;99.90;;;;;;5038370;28;20259;-84
2022/04/17 07:44:14;;;;;;;6.75;4.40;;;7.70;99.90;;;;;;5039848;28;20284;-83
2022/04/17 07:46:41;;;;;;;4.22;3.60;;;7.70;99.90;;;;;;5017265;28;20438;-84
2022/04/17 07:49:07;;;;;;;4.55;4.13;;;7.80;99.90;;;;;;5018596;28;20072;-83
2022/04/17 07:51:33;;;;;;;3.67;3.35;;;7.80;99.90;;;;;;5019865;28;20037;-83
2022/04/17 07:53:58;;;;;;;4.60;3.03;;;7.90;99.90;;;;;;5020133;28;20073;-83
2022/04/17 07:56:24;;;;;;;4.68;3.42;;;7.90;99.90;;;;;;5019213;28;20113;-83
2022/04/17 07:58:50;;;;;;;3.78;3.42;;;7.90;99.90;;;;;;5019799;28;20118;-83
2022/04/17 08:01:16;;;;;;;3.10;2.50;;;8.00;99.90;;;;;;5018028;28;20136;-83
2022/04/17 08:06:10;;;;;;;5.10;3.85;;;8.20;99.90;;;;;;5037057;28;20068;-83
2022/04/17 08:08:37;;;;;;;5.25;3.20;;;8.20;99.90;;;;;;5022159;28;20049;-84
2022/04/17 08:11:06;;;;;;;5.20;3.65;;;8.20;99.90;;;;;;5039347;28;20037;-84
2022/04/17 08:13:34;;;;;;;3.78;3.20;;;8.30;99.90;;;;;;5022226;28;20403;-84
2022/04/17 08:16:00;;;;;;;4.30;3.53;;;8.30;99.90;;;;;;5039781;28;20582;-81
2022/04/17 08:18:26;;;;;;;4.32;3.92;;;8.40;99.90;;;;;;5020918;28;20041;-81
2022/04/17 08:20:51;;;;;;;3.15;2.88;;;8.50;99.90;;;;;;5023080;28;20106;-81
2022/04/17 08:23:17;;;;;;;3.78;3.17;;;8.60;99.90;;;;;;5043238;28;20037;-80
2022/04/17 08:25:43;;;;;;;8.23;3.58;;;8.60;99.90;;;;;;5042897;28;20040;-81
2022/04/17 08:28:09;;;;;;;3.45;3.17;;;8.70;99.90;;;;;;5042758;28;20040;-82
2022/04/17 08:30:35;;;;;;;4.95;3.35;;;8.70;99.90;;;;;;5043080;28;20696;-81
2022/04/17 08:33:03;;;;;;;4.90;3.50;;;8.70;99.90;;;;;;5041537;28;20037;-81
2022/04/17 08:35:29;;;;;;;8.98;3.00;;;8.80;99.90;;;;;;5043665;28;20402;-81
2022/04/17 08:37:59;;;;;;;3.58;3.28;;;8.90;99.90;;;;;;5043047;28;20125;-81
2022/04/17 08:40:26;;;;;;;5.43;3.35;;;8.90;99.90;;;;;;5043107;28;20360;-81
2022/04/17 08:42:56;;;;;;;6.22;3.33;;;8.90;99.90;;;;;;5028601;28;20053;-81
2022/04/17 08:45:22;;;;;;;4.13;3.03;;;9.00;99.90;;;;;;5027176;28;20059;-81
2022/04/17 08:47:48;;;;;;;16.13;3.95;;;9.10;99.90;;;;;;5041715;28;20039;-81
2022/04/17 08:50:16;;;;;;;6.88;3.90;;;9.10;99.90;;;;;;5042371;28;20205;-81
2022/04/17 08:52:46;;;;;;;3.63;2.67;;;9.20;99.90;;;;;;5043009;28;20103;-81
2022/04/17 08:55:12;;;;;;;3.92;2.85;;;9.20;99.90;;;;;;5040938;28;20048;-81
2022/04/17 08:57:37;;;;;;;2.63;2.42;;;9.30;99.90;;;;;;5042331;28;20049;-81
2022/04/17 09:00:08;;;;;;;8.02;3.28;;;9.30;99.90;;;;;;5041612;28;20049;-82
2022/04/17 09:02:33;;;;;;;3.95;3.65;;;9.40;99.90;;;;;;5023250;28;20124;-81
2022/04/17 09:05:02;;;;;;;2.53;2.15;;;9.40;99.90;;;;;;5042746;28;20139;-81
2022/04/17 09:07:39;;;;;;;3.33;2.17;;;9.50;99.90;;;;;;5042484;28;20051;-81
2022/04/17 09:10:05;;;;;;;3.22;2.78;;;9.50;99.90;;;;;;5042137;28;20128;-80
2022/04/17 09:12:30;;;;;;;4.00;3.47;;;9.50;99.90;;;;;;5041936;28;20120;-82
2022/04/17 09:14:57;;;;;;;3.95;2.50;;;9.50;99.90;;;;;;5025232;28;20041;-81
2022/04/17 09:17:33;;;;;;;4.57;2.72;;;9.50;99.90;;;;;;5040779;28;20523;-81
2022/04/17 09:19:59;;;;;;;3.10;2.65;;;9.50;99.90;;;;;;5024997;28;20510;-82
2022/04/17 09:22:26;;;;;;;3.50;3.15;;;9.60;99.90;;;;;;5041309;28;20091;-81
2022/04/17 09:24:51;;;;;;;2.97;2.65;;;9.60;99.90;;;;;;5024171;28;20129;-81
2022/04/17 09:27:17;;;;;;;5.03;3.47;;;9.70;99.90;;;;;;5042060;28;20076;-81
2022/04/17 09:29:42;;;;;;;3.67;2.95;;;9.70;99.90;;;;;;5023760;28;20086;-81
2022/04/17 09:32:10;;;;;;;3.80;3.25;;;9.80;99.90;;;;;;5039809;28;20500;-82
2022/04/17 09:34:49;;;;;;;3.25;2.75;;;9.80;99.90;;;;;;5041785;28;20036;-82
2022/04/17 09:37:15;;;;;;;3.58;2.75;;;9.80;99.90;;;;;;5041721;28;20090;-82
2022/04/17 09:39:42;;;;;;;3.45;2.78;;;9.90;99.90;;;;;;5041577;28;20045;-81
2022/04/17 09:42:08;;;;;;;2.97;2.70;;;9.90;99.90;;;;;;5041596;28;20041;-82
2022/04/17 09:44:48;;;;;;;3.38;2.95;;;9.90;99.90;;;;;;5042180;28;20102;-82
2022/04/17 09:47:26;;;;;;;3.90;3.20;;;10.00;99.90;;;;;;5002953;28;20049;-81
2022/04/17 09:50:03;;;;;;;2.60;2.30;;;10.10;99.90;;;;;;5021327;28;20051;-82
2022/04/17 09:52:50;;;;;;;3.00;2.75;;;10.20;99.90;;;;;;5022350;28;20049;-81
2022/04/17 09:55:26;;;;;;;10.35;2.92;;;10.20;99.90;;;;;;5020918;28;20297;-83
2022/04/17 09:57:57;;;;;;;4.30;2.75;;;10.20;99.90;;;;;;5021302;28;20037;-82
2022/04/17 10:00:23;;;;;;;3.10;2.70;;;10.20;99.90;;;;;;5020981;28;20053;-82
2022/04/17 10:02:49;;;;;;;3.42;2.72;;;10.20;99.90;;;;;;5020084;28;20500;-81
2022/04/17 10:05:17;;;;;;;9.77;2.15;;;10.20;99.90;;;;;;4999980;28;20053;-82
2022/04/17 10:07:47;;;;;;;7.70;3.40;;;10.30;99.90;;;;;;5000194;28;20038;-81
2022/04/17 10:10:13;;;;;;;3.58;2.58;;;10.40;99.90;;;;;;4999977;28;20042;-82
2022/04/17 10:12:40;;;;;;;6.07;3.25;;;10.40;99.90;;;;;;5001618;28;20042;-81
2022/04/17 10:15:07;;;;;;;5.53;3.45;;;10.40;99.90;;;;;;5016172;28;20046;-81
2022/04/17 10:17:34;;;;;;;2.10;1.92;;;10.50;99.90;;;;;;4999417;28;20366;-82
2022/04/17 10:20:06;;;;;;;1.83;1.73;;;10.50;99.90;;;;;;5000419;28;20108;-81
2022/04/17 10:22:33;;;;;;;4.67;2.97;;;10.50;99.90;;;;;;4999935;28;20056;-83
2022/04/17 10:24:59;;;;;;;2.03;1.92;;;10.60;99.90;;;;;;5001913;28;20301;-81
2022/04/17 10:27:32;;;;;;;3.20;2.88;;;10.70;99.90;;;;;;5001038;28;20721;-82
2022/04/17 10:30:12;;;;;;;3.72;3.40;;;10.70;99.90;;;;;;5001393;28;20053;-81
2022/04/17 10:33:03;;;;;;;2.42;2.13;;;10.80;99.90;;;;;;5000016;28;20117;-82
2022/04/17 10:35:46;;;;;;;3.25;2.42;;;10.80;99.90;;;;;;5000249;28;20049;-81
2022/04/17 10:38:41;;;;;;;3.95;2.67;;;10.80;99.90;;;;;;5000370;28;20053;-82
2022/04/17 10:41:08;;;;;;;3.22;2.08;;;10.80;99.90;;;;;;5000188;28;20057;-82
2022/04/17 10:43:42;;;;;;;2.13;1.92;;;10.90;99.90;;;;;;5000968;28;20037;-81
2022/04/17 10:46:19;;;;;;;7.55;2.85;;;10.90;99.90;;;;;;4999268;28;20046;-79
2022/04/17 10:48:54;;;;;;;3.03;2.00;;;10.90;99.90;;;;;;5000721;28;20046;-82
2022/04/17 10:51:25;;;;;;;3.13;1.98;;;11.00;99.90;;;;;;4999472;28;20429;-82
2022/04/17 10:53:52;;;;;;;2.10;1.98;;;11.00;99.90;;;;;;5001454;28;20050;-82
2022/04/17 10:56:18;;;;;;;2.53;2.33;;;11.00;99.90;;;;;;5000376;28;20049;-82
2022/04/17 10:58:54;;;;;;;8.85;2.63;;;11.10;99.90;;;;;;5000923;28;20385;-81
2022/04/17 11:01:59;;;;;;;3.78;1.90;;;11.10;99.90;;;;;;4997704;28;20362;-82
2022/04/17 11:04:24;;;;;;;7.35;2.80;;;11.10;99.90;;;;;;4974891;28;20128;-82
2022/04/17 11:07:05;;;;;;;7.75;2.70;;;11.20;99.90;;;;;;5020039;28;20331;-81
2022/04/17 11:09:33;;;;;;;2.35;1.92;;;11.20;99.90;;;;;;5019971;28;20052;-80
2022/04/17 11:12:27;;;;;;;2.88;2.33;;;11.30;99.90;;;;;;5021016;28;20099;-82
2022/04/17 11:15:01;;;;;;;5.18;3.20;;;11.30;99.90;;;;;;5020471;28;20057;-82
2022/04/17 11:17:32;;;;;;;3.70;2.38;;;11.40;99.90;;;;;;5019453;28;20129;-82
2022/04/17 11:19:59;;;;;;;3.22;1.85;;;11.40;99.90;;;;;;5020315;28;20056;-81
2022/04/17 11:22:43;;;;;;;3.35;2.50;;;11.50;99.90;;;;;;5019784;28;20322;-82
2022/04/17 11:25:12;;;;;;;2.65;2.42;;;11.50;99.90;;;;;;5020257;28;20069;-82
2022/04/17 11:27:42;;;;;;;2.35;2.15;;;11.50;99.90;;;;;;5019535;28;20699;-82
2022/04/17 11:30:30;;;;;;;3.38;1.70;;;11.50;99.90;;;;;;5051411;28;20041;-81
2022/04/17 11:32:56;;;;;;;3.05;2.78;;;11.60;99.90;;;;;;5019125;28;20492;-82
2022/04/17 11:35:24;;;;;;;2.47;2.28;;;11.60;99.90;;;;;;5018623;28;20057;-83
2022/04/17 11:38:07;;;;;;;3.30;2.30;;;11.60;99.90;;;;;;5035049;28;20471;-83
2022/04/17 11:40:34;;;;;;;3.83;2.03;;;11.60;99.90;;;;;;5018578;28;20053;-82
2022/04/17 11:43:06;;;;;;;3.00;1.88;;;11.70;99.90;;;;;;5020727;28;20040;-83
2022/04/17 11:45:31;;;;;;;3.30;2.45;;;11.70;99.90;;;;;;5049196;28;20046;-83
2022/04/17 11:48:03;;;;;;;3.83;2.60;;;11.70;99.90;;;;;;5034788;28;20100;-83
2022/04/17 11:50:30;;;;;;;5.15;2.50;;;11.70;99.90;;;;;;5019309;28;20124;-82
2022/04/17 11:53:06;;;;;;;2.40;2.08;;;11.70;99.90;;;;;;5020198;28;20121;-83
2022/04/17 11:55:37;;;;;;;3.17;2.78;;;11.80;99.90;;;;;;5002943;28;20492;-83
2022/04/17 11:58:03;;;;;;;2.30;2.13;;;11.80;99.90;;;;;;5005547;28;20053;-83
2022/04/17 12:00:30;;;;;;;4.15;3.13;;;11.90;99.90;;;;;;5024095;28;20042;-83
2022/04/17 12:03:05;;;;;;;2.55;1.65;;;12.00;99.90;;;;;;5038458;28;20072;-82
2022/04/17 12:05:32;;;;;;;2.10;1.98;;;12.00;99.90;;;;;;5023634;28;20057;-80
2022/04/17 12:08:09;;;;;;;1.85;1.48;;;12.10;99.90;;;;;;5023536;28;20278;-83
2022/04/17 12:10:38;;;;;;;2.45;2.25;;;12.10;99.90;;;;;;5023457;28;20060;-83
2022/04/17 12:13:14;;;;;;;11.50;2.65;;;12.20;99.90;;;;;;5023833;28;20042;-83
2022/04/17 12:15:40;;;;;;;2.92;1.70;;;12.20;99.90;;;;;;5023400;28;20038;-83
2022/04/17 12:18:06;;;;;;;6.57;2.15;;;12.20;99.90;;;;;;5022621;28;20499;-83
2022/04/17 12:20:32;;;;;;;3.47;2.50;;;12.30;99.90;;;;;;5023147;28;20575;-83
2022/04/17 12:22:57;;;;;;;1.80;1.65;;;12.30;99.90;;;;;;5005809;28;20500;-82
2022/04/17 12:25:25;;;;;;;3.90;1.67;;;12.40;99.90;;;;;;5022887;28;20257;-83
2022/04/17 12:27:53;;;;;;;2.30;1.70;;;12.40;99.90;;;;;;5023389;28;20157;-83
2022/04/17 12:30:29;;;;;;;5.25;2.20;;;12.50;99.90;;;;;;5022915;28;20029;-83
2022/04/17 12:32:59;;;;;;;1.58;1.45;;;12.50;99.90;;;;;;5021954;28;20084;-82
2022/04/17 12:35:30;;;;;;;2.33;2.03;;;12.50;99.90;;;;;;5023139;28;20361;-83
2022/04/17 12:38:04;;;;;;;3.20;2.17;;;12.60;99.90;;;;;;5021303;28;20116;-83
2022/04/17 12:40:31;;;;;;;2.20;2.00;;;12.60;99.90;;;;;;5038408;28;20050;-83
2022/04/17 12:43:14;;;;;;;2.47;1.67;;;12.60;99.90;;;;;;5038222;28;20103;-83
2022/04/17 12:45:51;;;;;;;3.47;2.13;;;12.60;99.90;;;;;;5015644;28;20476;-83
2022/04/17 12:48:24;;;;;;;1.95;1.83;;;12.60;99.90;;;;;;5002646;28;20070;-83
2022/04/17 12:51:24;;;;;;;3.47;2.35;;;12.60;99.90;;;;;;5003264;28;20124;-83
2022/04/17 12:53:50;;;;;;;1.75;1.65;;;12.60;99.80;;;;;;4994416;28;20057;-83
2022/04/17 12:56:18;;;;;;;4.82;2.13;;;12.70;99.90;;;;;;5001082;28;20038;-82
2022/04/17 12:58:51;;;;;;;1.67;1.52;;;12.70;99.90;;;;;;5002848;28;20039;-83
2022/04/17 13:01:23;;;;;;;2.25;2.05;;;12.70;99.90;;;;;;5001458;28;20037;-83
2022/04/17 13:03:49;;;;;;;2.47;2.05;;;12.80;99.90;;;;;;5034192;28;20057;-83
2022/04/17 13:06:20;;;;;;;1.33;1.17;;;12.80;99.90;;;;;;5019177;28;20057;-83
2022/04/17 13:09:13;;;;;;;1.98;1.88;;;12.90;99.90;;;;;;5037423;28;20625;-83
2022/04/17 13:11:43;;;;;;;;;;;12.90;99.90;;;;;;5037809;28;20038;-83